Time;durP1;ratioP1;P1;durP2;ratioP2;P2;SDS_P1;SDS_P2;PMS_P1;PMS_P2;Temp;Humidity;BMP_temperature;BMP_pressure;BME280_temperature;BME280_humidity;BME280_pressure;Samples;Min_cycle;Max_cycle;Signal;HPM_P1;HPM_P2
2023/04/02 00:01:17;;;;;;;0.43;0.30;;;17.90;37.60;;;;;;6015301;23;20583;-84
2023/04/02 00:04:07;;;;;;;0.17;0.17;;;17.90;37.60;;;;;;5991458;23;20174;-83
2023/04/02 00:06:39;;;;;;;0.13;0.10;;;17.90;37.70;;;;;;5991893;23;20222;-83
2023/04/02 00:09:23;;;;;;;0.20;0.20;;;17.80;37.60;;;;;;5992000;23;20195;-84
2023/04/02 00:11:53;;;;;;;0.73;0.30;;;17.90;37.70;;;;;;6040064;23;20139;-84
2023/04/02 00:14:30;;;;;;;1.00;0.30;;;17.90;37.60;;;;;;6015560;23;20141;-83
2023/04/02 00:16:56;;;;;;;0.80;0.30;;;17.80;37.60;;;;;;6014739;23;20138;-84
2023/04/02 00:19:27;;;;;;;0.10;0.10;;;17.90;37.70;;;;;;6014837;23;20166;-84
2023/04/02 00:21:57;;;;;;;0.15;0.13;;;17.90;37.70;;;;;;6015244;23;20495;-83
2023/04/02 00:24:23;;;;;;;0.50;0.20;;;17.80;37.80;;;;;;5967439;23;20190;-83
2023/04/02 00:26:50;;;;;;;0.30;0.20;;;17.80;37.70;;;;;;6014649;23;20194;-84
2023/04/02 00:29:16;;;;;;;0.10;0.10;;;17.90;37.70;;;;;;5991197;23;20145;-84
2023/04/02 00:31:43;;;;;;;0.47;0.20;;;17.90;37.80;;;;;;6014656;23;20217;-84
2023/04/02 00:34:31;;;;;;;0.40;0.30;;;17.90;37.80;;;;;;6014946;23;20462;-84
2023/04/02 00:36:57;;;;;;;0.60;0.20;;;17.80;37.70;;;;;;6040294;23;20150;-83
2023/04/02 00:39:24;;;;;;;0.20;0.20;;;17.80;37.80;;;;;;6040025;23;20559;-84
2023/04/02 00:41:57;;;;;;;0.20;0.20;;;17.80;37.80;;;;;;6014525;23;20138;-84
2023/04/02 00:44:23;;;;;;;0.57;0.30;;;17.90;37.80;;;;;;6015699;23;20593;-84
2023/04/02 00:46:49;;;;;;;0.60;0.20;;;17.80;37.80;;;;;;6014492;23;20526;-83
2023/04/02 00:49:31;;;;;;;0.57;0.30;;;17.80;37.90;;;;;;6014920;23;20134;-84
2023/04/02 00:51:59;;;;;;;0.20;0.20;;;17.80;38.00;;;;;;6014596;23;20189;-83
2023/04/02 00:54:28;;;;;;;0.20;0.20;;;17.80;38.00;;;;;;6014934;23;20165;-83
2023/04/02 00:56:55;;;;;;;0.20;0.20;;;17.70;37.90;;;;;;6014575;23;20146;-84
2023/04/02 00:59:30;;;;;;;0.20;0.13;;;17.80;37.90;;;;;;6014654;23;20563;-83
2023/04/02 01:02:18;;;;;;;0.20;0.10;;;17.80;37.90;;;;;;6014484;23;20217;-84
2023/04/02 01:04:53;;;;;;;0.20;0.20;;;17.80;37.90;;;;;;6014822;23;20150;-83
2023/04/02 01:07:21;;;;;;;0.65;0.20;;;17.80;38.00;;;;;;6014736;23;20141;-83
2023/04/02 01:10:01;;;;;;;0.52;0.30;;;17.80;38.00;;;;;;6014415;23;20210;-83
2023/04/02 01:12:43;;;;;;;1.48;0.30;;;17.80;37.90;;;;;;6039833;23;20173;-83
2023/04/02 01:15:18;;;;;;;0.50;0.20;;;17.80;38.00;;;;;;6014668;23;20146;-83
2023/04/02 01:18:00;;;;;;;0.30;0.30;;;17.80;38.00;;;;;;6014440;23;20145;-84
2023/04/02 01:20:53;;;;;;;0.20;0.20;;;17.80;38.00;;;;;;6039824;23;20146;-83
2023/04/02 01:23:33;;;;;;;0.35;0.30;;;17.80;38.00;;;;;;6018976;23;20176;-83
2023/04/02 01:26:20;;;;;;;1.00;0.30;;;17.80;38.00;;;;;;6014249;23;20137;-83
2023/04/02 01:29:02;;;;;;;0.32;0.20;;;17.80;38.00;;;;;;6039795;23;20135;-84
2023/04/02 01:31:28;;;;;;;0.22;0.20;;;17.80;38.00;;;;;;6014358;23;20149;-83
2023/04/02 01:33:54;;;;;;;0.43;0.32;;;17.80;38.00;;;;;;5992124;23;20583;-83
2023/04/02 01:36:52;;;;;;;0.30;0.30;;;17.80;38.00;;;;;;6016337;23;20221;-83
2023/04/02 01:39:26;;;;;;;0.20;0.20;;;17.80;38.10;;;;;;6020467;23;20165;-83
2023/04/02 01:42:16;;;;;;;0.20;0.20;;;17.80;38.00;;;;;;6016066;23;20142;-83
2023/04/02 01:44:51;;;;;;;0.30;0.20;;;17.80;38.10;;;;;;6015922;23;20158;-83
2023/04/02 01:47:20;;;;;;;0.20;0.20;;;17.80;38.00;;;;;;6016184;23;20134;-83
2023/04/02 01:49:46;;;;;;;0.10;0.10;;;17.80;38.10;;;;;;5992861;23;20146;-83
2023/04/02 01:52:16;;;;;;;0.35;0.20;;;17.80;38.00;;;;;;6015789;23;20587;-83
2023/04/02 01:54:44;;;;;;;0.70;0.20;;;17.80;38.00;;;;;;5993228;23;20233;-83
2023/04/02 01:57:10;;;;;;;0.25;0.20;;;17.80;38.20;;;;;;6015720;23;20154;-83
2023/04/02 01:59:36;;;;;;;0.52;0.30;;;17.70;38.10;;;;;;6041083;23;20138;-84
2023/04/02 02:02:06;;;;;;;0.30;0.20;;;17.80;38.10;;;;;;5992158;23;20358;-83
2023/04/02 02:04:32;;;;;;;0.25;0.20;;;17.70;38.20;;;;;;6015670;23;20260;-83
2023/04/02 02:06:59;;;;;;;0.20;0.20;;;17.80;38.20;;;;;;6015688;23;20247;-82
2023/04/02 02:09:28;;;;;;;0.30;0.30;;;17.70;38.20;;;;;;5993296;23;20154;-84
2023/04/02 02:11:56;;;;;;;0.40;0.20;;;17.70;38.20;;;;;;6016141;23;20202;-84
2023/04/02 02:14:23;;;;;;;0.38;0.20;;;17.70;38.20;;;;;;6041022;23;20217;-83
2023/04/02 02:16:52;;;;;;;0.70;0.30;;;17.80;38.30;;;;;;6041123;23;20593;-84
2023/04/02 02:19:28;;;;;;;0.38;0.20;;;17.70;38.20;;;;;;6015713;23;20161;-84
2023/04/02 02:21:57;;;;;;;0.20;0.20;;;17.80;38.30;;;;;;6015700;23;20131;-83
2023/04/02 02:24:25;;;;;;;0.25;0.20;;;17.70;38.30;;;;;;6015589;23;20201;-83
2023/04/02 02:27:07;;;;;;;0.25;0.20;;;17.70;38.30;;;;;;6016055;23;20221;-84
2023/04/02 02:29:35;;;;;;;0.40;0.20;;;17.70;38.30;;;;;;6016015;23;20512;-84
2023/04/02 02:32:01;;;;;;;0.25;0.20;;;17.70;38.30;;;;;;6015861;23;20142;-83
2023/04/02 02:34:31;;;;;;;0.50;0.38;;;17.70;38.30;;;;;;6015596;23;20644;-84
2023/04/02 02:37:03;;;;;;;0.30;0.20;;;17.70;38.30;;;;;;5992119;23;20658;-84
2023/04/02 02:39:33;;;;;;;0.40;0.40;;;17.70;38.30;;;;;;6015962;23;20138;-83
2023/04/02 02:42:07;;;;;;;0.80;0.40;;;17.70;38.30;;;;;;6040598;23;20177;-83
2023/04/02 02:44:35;;;;;;;0.20;0.20;;;17.80;38.30;;;;;;6015723;23;20217;-84
2023/04/02 02:47:05;;;;;;;0.30;0.30;;;17.70;38.30;;;;;;6015344;23;20463;-83
2023/04/02 02:49:33;;;;;;;0.20;0.20;;;17.70;38.30;;;;;;6015958;23;20157;-83
2023/04/02 02:52:14;;;;;;;0.60;0.30;;;17.70;38.30;;;;;;6040406;23;20284;-83
2023/04/02 02:54:44;;;;;;;0.45;0.30;;;17.70;38.40;;;;;;6016358;23;20150;-83
2023/04/02 02:57:17;;;;;;;0.20;0.20;;;17.70;38.30;;;;;;6040486;23;20658;-83
2023/04/02 02:59:43;;;;;;;0.30;0.20;;;17.70;38.30;;;;;;6014803;23;20169;-84
2023/04/02 03:02:09;;;;;;;0.57;0.30;;;17.80;38.40;;;;;;6040421;23;20467;-84
2023/04/02 03:04:35;;;;;;;0.13;0.13;;;17.70;38.40;;;;;;6015740;23;20566;-83
2023/04/02 03:07:02;;;;;;;0.30;0.20;;;17.70;38.40;;;;;;6015293;23;20183;-83
2023/04/02 03:09:44;;;;;;;0.70;0.30;;;17.70;38.50;;;;;;6040423;23;20135;-83
2023/04/02 03:12:40;;;;;;;0.17;0.13;;;17.70;38.40;;;;;;6040365;23;20170;-84
2023/04/02 03:15:30;;;;;;;0.20;0.20;;;17.60;38.30;;;;;;6021650;23;20153;-84
2023/04/02 03:18:09;;;;;;;0.20;0.20;;;17.70;38.40;;;;;;6015371;23;20134;-83
2023/04/02 03:20:49;;;;;;;0.40;0.20;;;17.70;38.50;;;;;;6040491;23;20147;-84
2023/04/02 03:23:37;;;;;;;0.20;0.20;;;17.70;38.50;;;;;;6040441;23;20170;-84
2023/04/02 03:26:09;;;;;;;0.50;0.28;;;17.70;38.50;;;;;;6015060;23;20177;-83
2023/04/02 03:28:40;;;;;;;0.75;0.32;;;17.70;38.40;;;;;;6015161;23;20138;-84
2023/04/02 03:31:15;;;;;;;0.60;0.30;;;17.70;38.50;;;;;;6015718;23;20151;-83
2023/04/02 03:33:47;;;;;;;0.70;0.20;;;17.70;38.40;;;;;;6015576;23;20142;-83
2023/04/02 03:36:29;;;;;;;0.32;0.20;;;17.70;38.50;;;;;;6015119;23;20247;-83
2023/04/02 03:39:12;;;;;;;0.40;0.20;;;17.70;38.50;;;;;;5995398;23;20154;-83
2023/04/02 03:42:02;;;;;;;0.40;0.30;;;17.70;38.40;;;;;;6015201;23;20189;-83
2023/04/02 03:44:41;;;;;;;0.20;0.20;;;17.70;38.40;;;;;;6015681;23;20539;-83
2023/04/02 03:47:15;;;;;;;0.20;0.20;;;17.70;38.40;;;;;;6015329;23;20138;-83
2023/04/02 03:50:02;;;;;;;0.30;0.30;;;17.80;38.40;;;;;;6014836;23;20134;-83
2023/04/02 03:52:29;;;;;;;0.28;0.20;;;17.70;38.50;;;;;;6014591;23;20246;-83
2023/04/02 03:54:59;;;;;;;0.45;0.30;;;17.70;38.50;;;;;;6014715;23;20471;-83
2023/04/02 03:57:34;;;;;;;0.40;0.25;;;17.70;38.50;;;;;;5967577;23;20161;-83
2023/04/02 04:00:05;;;;;;;0.40;0.20;;;17.70;38.50;;;;;;6015134;23;20146;-84
2023/04/02 04:02:44;;;;;;;0.40;0.30;;;17.70;38.60;;;;;;6014754;23;20494;-83
2023/04/02 04:05:31;;;;;;;0.30;0.30;;;17.70;38.50;;;;;;6015182;23;20142;-83
2023/04/02 04:08:02;;;;;;;0.20;0.20;;;17.70;38.60;;;;;;6039880;23;20139;-83
2023/04/02 04:10:28;;;;;;;0.30;0.20;;;17.60;38.50;;;;;;6015366;23;20551;-83
2023/04/02 04:12:56;;;;;;;0.30;0.30;;;17.70;38.60;;;;;;6014867;23;20141;-84
2023/04/02 04:15:31;;;;;;;0.20;0.20;;;17.60;38.50;;;;;;5991619;23;20146;-83
2023/04/02 04:18:20;;;;;;;0.40;0.22;;;17.70;38.60;;;;;;6014620;23;20141;-84
2023/04/02 04:20:55;;;;;;;0.20;0.20;;;17.70;38.60;;;;;;6040089;23;20641;-84
2023/04/02 04:23:34;;;;;;;0.63;0.30;;;17.70;38.60;;;;;;6039900;23;20175;-83
2023/04/02 04:26:12;;;;;;;0.93;0.30;;;17.70;38.60;;;;;;5991142;23;20236;-83
2023/04/02 04:29:04;;;;;;;0.88;0.28;;;17.70;38.70;;;;;;6015010;23;20138;-84
2023/04/02 04:31:49;;;;;;;0.20;0.20;;;17.70;38.60;;;;;;6015518;23;20233;-84
2023/04/02 04:34:30;;;;;;;0.43;0.32;;;17.60;38.50;;;;;;6014690;23;20537;-84
2023/04/02 04:37:00;;;;;;;0.30;0.25;;;17.70;38.60;;;;;;6040002;23;20499;-83
2023/04/02 04:39:40;;;;;;;0.30;0.30;;;17.70;38.70;;;;;;5991376;23;20157;-83
2023/04/02 04:42:06;;;;;;;1.08;0.28;;;17.70;38.60;;;;;;6014922;23;20158;-83
2023/04/02 04:44:41;;;;;;;1.20;0.32;;;17.60;38.70;;;;;;6014482;23;20189;-83
2023/04/02 04:47:10;;;;;;;0.15;0.15;;;17.70;38.70;;;;;;6014671;23;20630;-83
2023/04/02 04:49:43;;;;;;;0.85;0.50;;;17.70;38.60;;;;;;6014409;23;20134;-83
2023/04/02 04:52:18;;;;;;;0.55;0.20;;;17.70;38.60;;;;;;5990810;23;20198;-83
2023/04/02 04:54:44;;;;;;;0.90;0.47;;;17.70;38.70;;;;;;5990974;23;20153;-83
2023/04/02 04:57:32;;;;;;;0.20;0.20;;;17.70;38.60;;;;;;6039545;23;20167;-82
2023/04/02 05:00:05;;;;;;;0.30;0.15;;;17.70;38.70;;;;;;6039457;23;20163;-82
2023/04/02 05:02:36;;;;;;;0.45;0.30;;;17.70;38.60;;;;;;6014970;23;20174;-82
2023/04/02 05:05:02;;;;;;;0.40;0.30;;;17.60;38.60;;;;;;6014409;23;20149;-83
2023/04/02 05:07:30;;;;;;;0.77;0.28;;;17.70;38.70;;;;;;6015480;23;20470;-82
2023/04/02 05:10:18;;;;;;;0.30;0.30;;;17.60;38.70;;;;;;6016204;23;20169;-82
2023/04/02 05:12:50;;;;;;;0.28;0.20;;;17.70;38.70;;;;;;6021156;23;20134;-82
2023/04/02 05:15:23;;;;;;;0.20;0.20;;;17.70;38.70;;;;;;6041231;23;20146;-82
2023/04/02 05:18:12;;;;;;;0.90;0.22;;;17.60;38.60;;;;;;6016560;23;20177;-82
2023/04/02 05:20:50;;;;;;;0.32;0.30;;;17.70;38.60;;;;;;6041320;23;20142;-82
2023/04/02 05:23:36;;;;;;;0.50;0.30;;;17.60;38.50;;;;;;6016705;23;20313;-82
2023/04/02 05:26:08;;;;;;;0.40;0.30;;;17.70;38.60;;;;;;6017069;23;20193;-82
2023/04/02 05:28:40;;;;;;;0.30;0.20;;;17.70;38.60;;;;;;6063969;23;20566;-82
2023/04/02 05:31:10;;;;;;;0.35;0.30;;;17.70;38.50;;;;;;6016022;23;20486;-82
2023/04/02 05:33:36;;;;;;;0.30;0.30;;;17.70;38.50;;;;;;6016045;23;20150;-82
2023/04/02 05:36:11;;;;;;;0.45;0.20;;;17.70;38.50;;;;;;6015849;23;20153;-82
2023/04/02 05:38:39;;;;;;;0.70;0.30;;;17.70;38.40;;;;;;6016592;23;20521;-82
2023/04/02 05:41:31;;;;;;;0.32;0.25;;;17.80;38.50;;;;;;6016019;23;20266;-82
2023/04/02 05:44:04;;;;;;;0.25;0.20;;;17.80;38.40;;;;;;6040592;23;20173;-82
2023/04/02 05:46:33;;;;;;;0.40;0.20;;;17.80;38.50;;;;;;6016074;23;20156;-82
2023/04/02 05:48:59;;;;;;;0.50;0.40;;;17.80;38.30;;;;;;6016397;23;20173;-81
2023/04/02 05:51:34;;;;;;;0.20;0.20;;;17.80;38.30;;;;;;6015715;23;20643;-82
2023/04/02 05:54:01;;;;;;;0.38;0.30;;;17.90;38.40;;;;;;6015952;23;20228;-82
2023/04/02 05:56:30;;;;;;;0.80;0.30;;;17.80;38.30;;;;;;6015933;23;20470;-81
2023/04/02 05:59:27;;;;;;;0.45;0.30;;;17.90;38.40;;;;;;6040968;23;20203;-82
2023/04/02 06:02:09;;;;;;;0.45;0.30;;;17.80;38.30;;;;;;6020300;23;20213;-82
2023/04/02 06:04:46;;;;;;;0.80;0.40;;;17.90;38.40;;;;;;6040909;23;20166;-82
2023/04/02 06:07:21;;;;;;;0.75;0.30;;;17.90;38.40;;;;;;6016679;23;20134;-82
2023/04/02 06:09:53;;;;;;;0.45;0.45;;;17.90;38.30;;;;;;6016529;23;20134;-82
2023/04/02 06:12:26;;;;;;;0.20;0.20;;;17.90;38.30;;;;;;6016199;23;20146;-82
2023/04/02 06:14:52;;;;;;;0.30;0.30;;;17.90;38.30;;;;;;5992513;23;20146;-83
2023/04/02 06:17:19;;;;;;;0.43;0.40;;;17.90;38.30;;;;;;6015864;23;20601;-82
2023/04/02 06:19:46;;;;;;;0.50;0.30;;;17.90;38.30;;;;;;6015291;23;20173;-82
2023/04/02 06:22:37;;;;;;;0.45;0.38;;;17.90;38.20;;;;;;6016037;23;20141;-82
2023/04/02 06:25:23;;;;;;;0.30;0.30;;;18.00;38.20;;;;;;5992143;23;20286;-82
2023/04/02 06:27:49;;;;;;;0.52;0.35;;;17.90;38.20;;;;;;6040584;23;20142;-82
2023/04/02 06:30:18;;;;;;;0.40;0.30;;;18.00;38.20;;;;;;6015222;23;20134;-81
2023/04/02 06:32:44;;;;;;;0.73;0.20;;;17.90;38.20;;;;;;6040207;23;20168;-82
2023/04/02 06:35:12;;;;;;;0.30;0.30;;;18.00;38.20;;;;;;6041059;23;20484;-82
2023/04/02 06:37:39;;;;;;;1.05;0.30;;;18.00;38.20;;;;;;6040583;23;20208;-82
2023/04/02 06:40:13;;;;;;;1.20;0.40;;;18.00;38.20;;;;;;6015368;23;20142;-82
2023/04/02 06:42:39;;;;;;;1.88;0.40;;;18.00;38.10;;;;;;6015712;23;20545;-82
2023/04/02 06:45:07;;;;;;;0.25;0.25;;;18.00;38.10;;;;;;6015740;23;20194;-81
2023/04/02 06:47:41;;;;;;;0.50;0.30;;;18.10;38.10;;;;;;6015801;23;20138;-82
2023/04/02 06:50:22;;;;;;;0.47;0.30;;;18.10;38.10;;;;;;6015847;23;20146;-82
2023/04/02 06:52:57;;;;;;;0.85;0.40;;;18.10;38.10;;;;;;6016021;23;20193;-82
2023/04/02 06:55:30;;;;;;;0.20;0.20;;;18.10;38.10;;;;;;6016022;23;20138;-82
2023/04/02 06:57:56;;;;;;;0.20;0.20;;;18.10;38.20;;;;;;6039974;23;20158;-83
2023/04/02 07:00:41;;;;;;;0.30;0.30;;;18.00;38.10;;;;;;6015335;23;20165;-83
2023/04/02 07:03:33;;;;;;;2.70;0.60;;;18.00;38.30;;;;;;6024374;23;20176;-83
2023/04/02 07:06:22;;;;;;;0.30;0.30;;;18.10;38.40;;;;;;5999899;23;20150;-86
2023/04/02 07:08:54;;;;;;;1.55;0.32;;;18.10;38.60;;;;;;5995162;23;20154;-85
2023/04/02 07:11:44;;;;;;;0.43;0.28;;;18.10;39.30;;;;;;5959122;23;20158;-86
2023/04/02 07:14:56;;;;;;;;;;;;;;;;;;;;;
2023/04/02 07:17:52;;;;;;;5.30;0.50;;;18.30;38.50;;;;;;5989674;24;20156;-86
2023/04/02 07:20:40;;;;;;;2.38;0.50;;;18.20;38.30;;;;;;5931426;24;20155;-87
2023/04/02 07:23:29;;;;;;;3.33;0.50;;;18.20;38.40;;;;;;5974203;24;20259;-88
2023/04/02 07:26:50;;;;;;;;;;;;;;;;;;;;;
2023/04/02 07:29:41;;;;;;;1.83;0.30;;;18.30;38.30;;;;;;5931963;24;20186;-85
2023/04/02 07:33:20;;;;;;;3.10;0.50;;;18.30;38.50;;;;;;5930323;24;20171;-87
2023/04/02 07:40:24;;;;;;;;;;;;;;;;;;;;;
2023/04/02 08:11:10;;;;;;;4.95;0.80;;;18.80;39.20;;;;;;5518692;25;20174;-84
2023/04/02 08:13:36;;;;;;;6.63;0.90;;;18.70;39.20;;;;;;5582986;25;20170;-82
2023/04/02 08:16:06;;;;;;;5.00;0.73;;;18.80;38.90;;;;;;5639248;25;20166;-84
2023/04/02 08:18:32;;;;;;;5.53;1.15;;;18.80;38.80;;;;;;5696912;25;20177;-82
2023/04/02 08:21:00;;;;;;;5.80;0.70;;;18.80;38.80;;;;;;5716037;25;20182;-83
2023/04/02 08:23:26;;;;;;;7.60;0.98;;;18.80;38.60;;;;;;5780121;24;20655;-84
2023/04/02 08:25:53;;;;;;;10.30;1.00;;;18.90;38.60;;;;;;5820136;24;20211;-83
2023/04/02 08:28:20;;;;;;;11.73;1.27;;;18.80;38.70;;;;;;5799430;24;20162;-85
2023/04/02 08:30:49;;;;;;;14.30;1.23;;;18.80;38.70;;;;;;5995890;23;20215;-85
2023/04/02 08:33:29;;;;;;;15.20;1.30;;;18.80;38.50;;;;;;5994431;23;20590;-85
2023/04/02 08:35:55;;;;;;;17.23;1.33;;;18.90;38.70;;;;;;5999386;23;20202;-88
2023/04/02 08:38:30;;;;;;;33.22;2.25;;;18.90;38.40;;;;;;5996754;23;20241;-82
2023/04/02 08:40:57;;;;;;;33.80;2.50;;;19.00;38.70;;;;;;5994076;23;20154;-85
2023/04/02 08:43:29;;;;;;;23.27;2.47;;;19.00;38.60;;;;;;6018962;23;20178;-85
2023/04/02 08:46:26;;;;;;;33.88;2.00;;;19.00;38.50;;;;;;5959459;24;20156;-88
2023/04/02 08:49:31;;;;;;;22.08;1.48;;;19.10;38.80;;;;;;5965199;24;20136;-84
2023/04/02 08:52:08;;;;;;;17.10;1.52;;;19.00;38.80;;;;;;5924286;24;20210;-87
2023/04/02 08:54:36;;;;;;;15.68;1.85;;;19.10;38.80;;;;;;5936318;24;20159;-82
2023/04/02 08:57:20;;;;;;;19.48;1.77;;;19.20;38.90;;;;;;5934917;24;20316;-86
2023/04/02 09:00:21;;;;;;;29.40;1.85;;;19.10;39.00;;;;;;5937102;24;20171;-84
2023/04/02 09:03:08;;;;;;;21.17;1.85;;;19.00;39.50;;;;;;5935539;24;20248;-86
2023/04/02 09:05:36;;;;;;;25.98;1.73;;;18.90;39.60;;;;;;5933732;24;20239;-83
2023/04/02 09:08:15;;;;;;;21.70;1.55;;;18.90;40.30;;;;;;5935246;24;20640;-86
2023/04/02 09:11:04;;;;;;;16.20;1.45;;;18.80;40.30;;;;;;5871442;24;20165;-86
2023/04/02 09:13:37;;;;;;;14.80;1.52;;;18.80;40.10;;;;;;5868735;24;20217;-86
2023/04/02 09:16:25;;;;;;;;;;;;;;;;;;;;;
2023/04/02 09:18:54;;;;;;;11.93;1.00;;;18.80;40.10;;;;;;5964364;24;20220;-86
2023/04/02 09:21:36;;;;;;;12.02;0.98;;;18.70;40.10;;;;;;5963903;24;20216;-85
2023/04/02 09:24:03;;;;;;;10.93;1.05;;;18.70;40.10;;;;;;5936187;24;20188;-85
2023/04/02 09:26:31;;;;;;;5.40;0.77;;;18.70;40.30;;;;;;5935193;24;20293;-85
2023/04/02 09:29:25;;;;;;;12.85;0.98;;;18.70;40.30;;;;;;5958027;24;20152;-85
2023/04/02 09:32:05;;;;;;;11.50;1.10;;;18.80;40.10;;;;;;5960232;24;20221;-86
2023/04/02 09:35:11;;;;;;;10.68;0.80;;;18.70;40.10;;;;;;5941120;24;20198;-86
2023/04/02 09:38:08;;;;;;;8.32;0.88;;;18.80;39.80;;;;;;5968016;23;20191;-86
2023/04/02 09:41:01;;;;;;;9.18;1.45;;;18.80;40.10;;;;;;5981787;23;20158;-85
2023/04/02 09:43:33;;;;;;;6.65;0.90;;;18.80;40.20;;;;;;5980564;23;20187;-85
2023/04/02 09:46:02;;;;;;;9.00;0.90;;;18.80;40.20;;;;;;6021074;23;20326;-86
2023/04/02 09:48:35;;;;;;;7.72;0.77;;;18.80;40.40;;;;;;6019100;23;20150;-85
2023/04/02 09:51:04;;;;;;;7.63;0.82;;;18.80;40.50;;;;;;5973196;23;20671;-85
2023/04/02 09:54:05;;;;;;;7.00;0.65;;;18.80;40.20;;;;;;5996954;23;20161;-86
2023/04/02 09:56:34;;;;;;;6.43;1.00;;;18.80;40.20;;;;;;5981491;23;20166;-86
2023/04/02 09:59:15;;;;;;;4.75;0.50;;;18.80;40.30;;;;;;6045130;23;20146;-85
2023/04/02 10:01:47;;;;;;;5.35;0.70;;;18.80;40.30;;;;;;5977364;23;20162;-85
2023/04/02 10:04:31;;;;;;;5.97;0.90;;;18.80;40.20;;;;;;5972496;23;20196;-84
2023/04/02 10:07:02;;;;;;;5.50;1.05;;;18.80;40.10;;;;;;6019708;23;20225;-84
2023/04/02 10:09:29;;;;;;;5.40;0.88;;;18.80;40.10;;;;;;5972283;23;20154;-85
2023/04/02 10:11:56;;;;;;;4.85;0.60;;;18.90;40.30;;;;;;6019526;23;20138;-85
2023/04/02 10:14:26;;;;;;;4.93;0.70;;;18.80;40.30;;;;;;6045069;23;20202;-84
2023/04/02 10:16:57;;;;;;;6.20;0.80;;;18.70;40.50;;;;;;6019444;23;20146;-86
2023/04/02 10:19:38;;;;;;;4.40;0.52;;;18.80;40.40;;;;;;5975951;23;20158;-85
2023/04/02 10:22:15;;;;;;;5.88;0.70;;;18.80;40.70;;;;;;5975227;23;20154;-85
2023/04/02 10:24:41;;;;;;;6.57;0.73;;;18.80;40.50;;;;;;6021621;23;20185;-83
2023/04/02 10:27:21;;;;;;;4.60;0.73;;;18.80;40.50;;;;;;5998209;23;20142;-83
2023/04/02 10:30:02;;;;;;;5.25;0.82;;;18.80;40.50;;;;;;6021978;23;20190;-84
2023/04/02 10:32:36;;;;;;;8.90;1.00;;;18.80;40.60;;;;;;6023481;23;20181;-84
2023/04/02 10:35:10;;;;;;;6.90;1.00;;;18.80;40.80;;;;;;5998571;23;20146;-84
2023/04/02 10:37:55;;;;;;;8.02;0.98;;;18.70;40.30;;;;;;6021012;23;20141;-84
2023/04/02 10:40:28;;;;;;;4.40;0.50;;;18.70;40.70;;;;;;6016774;23;20142;-84
2023/04/02 10:43:25;;;;;;;3.03;0.70;;;18.70;40.20;;;;;;5992603;23;20178;-84
2023/04/02 10:46:02;;;;;;;5.43;0.60;;;18.80;40.10;;;;;;6045290;23;20157;-84
2023/04/02 10:48:37;;;;;;;4.97;0.45;;;18.80;40.20;;;;;;6042106;23;20194;-84
2023/04/02 10:51:18;;;;;;;4.68;0.80;;;18.80;40.10;;;;;;6016644;23;20201;-84
2023/04/02 10:54:16;;;;;;;3.22;0.60;;;18.80;39.90;;;;;;6022687;23;20166;-85
2023/04/02 10:56:48;;;;;;;4.80;0.63;;;18.80;40.20;;;;;;5962589;23;20165;-83
2023/04/02 10:59:29;;;;;;;1.95;0.30;;;18.80;40.00;;;;;;5951761;23;20185;-86
2023/04/02 11:01:59;;;;;;;7.40;0.63;;;18.80;40.10;;;;;;5939177;24;20185;-85
2023/04/02 11:04:36;;;;;;;4.00;0.45;;;18.70;40.70;;;;;;5938502;24;20188;-86
2023/04/02 11:07:06;;;;;;;5.85;0.77;;;18.60;41.00;;;;;;5933216;24;20152;-85
2023/04/02 11:09:38;;;;;;;5.93;0.45;;;18.60;40.90;;;;;;5936174;24;20156;-84
2023/04/02 11:12:04;;;;;;;1.75;0.32;;;18.60;40.60;;;;;;5938299;24;20204;-83
2023/04/02 11:14:30;;;;;;;2.20;0.40;;;18.60;40.80;;;;;;5938675;24;20168;-82
2023/04/02 11:17:02;;;;;;;1.45;0.43;;;18.60;40.10;;;;;;5964460;24;20686;-86
2023/04/02 11:19:29;;;;;;;1.05;0.35;;;18.80;40.30;;;;;;5931420;24;20624;-85
2023/04/02 11:21:56;;;;;;;4.97;0.50;;;18.70;40.40;;;;;;5957015;24;20757;-85
2023/04/02 11:24:46;;;;;;;7.38;0.57;;;18.60;40.60;;;;;;5937073;24;20184;-85
2023/04/02 11:27:27;;;;;;;6.72;0.90;;;18.70;40.30;;;;;;5919277;24;20208;-83
2023/04/02 11:30:19;;;;;;;2.60;0.47;;;18.70;41.00;;;;;;5896254;24;20231;-85
2023/04/02 11:32:48;;;;;;;3.42;0.35;;;18.70;40.10;;;;;;5957556;24;20213;-85
2023/04/02 11:35:37;;;;;;;1.02;0.28;;;18.70;39.80;;;;;;5957373;24;20185;-85
2023/04/02 11:38:46;;;;;;;3.08;0.60;;;18.80;39.50;;;;;;5957577;24;20152;-85
2023/04/02 11:41:34;;;;;;;3.40;0.50;;;18.80;39.80;;;;;;6022756;23;20158;-84
2023/04/02 11:44:05;;;;;;;0.88;0.30;;;18.70;40.10;;;;;;6025875;23;20201;-84
2023/04/02 11:46:38;;;;;;;2.15;0.40;;;18.70;39.90;;;;;;6006680;23;20150;-84
2023/04/02 11:49:38;;;;;;;1.75;0.30;;;18.70;40.10;;;;;;6027346;23;20134;-85
2023/04/02 11:52:17;;;;;;;2.53;0.32;;;18.70;40.00;;;;;;6009072;23;20202;-83
2023/04/02 11:54:47;;;;;;;3.60;0.50;;;18.70;39.90;;;;;;5998015;23;20158;-83
2023/04/02 11:57:27;;;;;;;3.83;0.40;;;18.70;40.30;;;;;;5973936;23;20181;-85
2023/04/02 12:00:28;;;;;;;0.40;0.30;;;18.60;39.80;;;;;;5913823;24;20167;-85
2023/04/02 12:03:28;;;;;;;1.15;0.30;;;18.60;39.60;;;;;;5914545;24;20272;-84
2023/04/02 12:06:05;;;;;;;0.65;0.30;;;18.70;39.90;;;;;;5936850;24;20152;-84
2023/04/02 12:09:08;;;;;;;2.17;0.30;;;18.70;39.80;;;;;;5914536;24;20171;-83
2023/04/02 12:11:46;;;;;;;3.05;0.50;;;18.70;39.40;;;;;;5915640;24;20231;-83
2023/04/02 12:14:51;;;;;;;1.67;0.30;;;18.70;39.20;;;;;;5909531;24;20169;-85
2023/04/02 12:17:30;;;;;;;3.33;0.30;;;18.80;39.40;;;;;;5885057;24;20157;-84
2023/04/02 12:20:08;;;;;;;0.40;0.20;;;18.70;39.50;;;;;;5859535;24;20165;-85
2023/04/02 12:22:46;;;;;;;1.42;0.30;;;18.80;39.40;;;;;;5827378;24;20237;-84
2023/04/02 12:25:30;;;;;;;0.82;0.40;;;18.80;39.20;;;;;;5760199;24;20242;-83
2023/04/02 12:28:17;;;;;;;0.68;0.30;;;18.80;39.00;;;;;;5800874;24;20540;-84
2023/04/02 12:31:03;;;;;;;2.50;0.40;;;18.80;39.30;;;;;;5771172;24;20650;-86
2023/04/02 12:33:38;;;;;;;0.80;0.20;;;18.80;39.30;;;;;;5845917;24;20185;-84
2023/04/02 12:36:20;;;;;;;0.80;0.30;;;18.70;39.70;;;;;;5844831;24;20498;-83
2023/04/02 12:38:52;;;;;;;4.32;0.40;;;18.60;39.60;;;;;;5824463;24;20250;-84
2023/04/02 12:41:29;;;;;;;0.85;0.40;;;18.70;39.00;;;;;;5849674;24;20163;-84
2023/04/02 12:43:56;;;;;;;1.20;0.28;;;18.80;39.00;;;;;;5871738;24;20277;-84
2023/04/02 12:46:24;;;;;;;1.15;0.22;;;18.70;39.30;;;;;;5855044;24;20162;-84
2023/04/02 12:49:05;;;;;;;0.80;0.30;;;18.70;39.60;;;;;;5881221;24;20160;-87
2023/04/02 12:51:31;;;;;;;0.47;0.20;;;18.60;39.80;;;;;;5898602;24;20203;-83
2023/04/02 12:54:01;;;;;;;0.68;0.30;;;18.60;39.80;;;;;;5975375;23;20151;-83
2023/04/02 12:56:35;;;;;;;0.65;0.28;;;18.60;39.90;;;;;;5943980;23;20154;-82
2023/04/02 12:59:34;;;;;;;0.90;0.30;;;18.60;39.70;;;;;;5943628;23;20204;-85
2023/04/02 13:02:15;;;;;;;4.68;0.32;;;18.70;40.00;;;;;;5993685;23;20155;-83
2023/04/02 13:04:53;;;;;;;0.73;0.20;;;18.70;40.10;;;;;;5975808;23;20189;-83
2023/04/02 13:07:26;;;;;;;2.38;0.38;;;18.70;39.90;;;;;;5950007;23;20161;-83
2023/04/02 13:09:55;;;;;;;1.95;0.28;;;18.70;39.30;;;;;;5949633;23;20151;-81
2023/04/02 13:12:26;;;;;;;4.47;0.38;;;18.70;39.70;;;;;;6021059;23;20245;-80
2023/04/02 13:15:02;;;;;;;0.73;0.40;;;18.70;39.10;;;;;;5999157;23;20154;-84
2023/04/02 13:18:00;;;;;;;1.40;0.30;;;18.70;39.20;;;;;;5954327;23;20538;-83
2023/04/02 13:20:39;;;;;;;3.38;0.20;;;18.80;38.90;;;;;;5956702;23;20163;-80
2023/04/02 13:23:34;;;;;;;2.88;0.35;;;18.80;38.80;;;;;;5973047;23;20186;-82
2023/04/02 13:26:16;;;;;;;2.38;0.40;;;18.80;38.50;;;;;;6028867;23;20175;-85
2023/04/02 13:28:53;;;;;;;4.00;0.40;;;18.80;38.90;;;;;;6030884;23;20170;-82
2023/04/02 13:31:19;;;;;;;1.67;0.30;;;18.80;38.90;;;;;;6030975;23;20161;-81
2023/04/02 13:33:50;;;;;;;2.20;0.32;;;18.90;38.50;;;;;;6005057;23;20183;-83
2023/04/02 13:36:28;;;;;;;2.38;0.30;;;18.80;39.40;;;;;;6029544;23;20193;-81
2023/04/02 13:39:00;;;;;;;6.60;0.50;;;18.80;39.20;;;;;;6007183;23;20157;-81
2023/04/02 13:41:35;;;;;;;1.40;0.22;;;18.80;39.10;;;;;;6029303;23;20562;-82
2023/04/02 13:44:10;;;;;;;2.22;0.30;;;18.80;39.50;;;;;;5982795;23;20566;-83
2023/04/02 13:46:45;;;;;;;2.80;0.30;;;18.80;39.80;;;;;;5982552;23;20154;-85
2023/04/02 13:49:11;;;;;;;1.40;0.40;;;18.90;39.60;;;;;;6006009;23;20158;-84
2023/04/02 13:51:50;;;;;;;1.77;0.30;;;18.90;39.60;;;;;;6025822;23;20193;-85
2023/04/02 13:54:26;;;;;;;1.50;0.85;;;18.90;39.30;;;;;;6023133;23;20134;-82
2023/04/02 13:56:53;;;;;;;0.20;0.20;;;18.90;39.50;;;;;;5975528;23;20162;-82
2023/04/02 13:59:25;;;;;;;1.55;0.20;;;18.90;39.30;;;;;;6003139;23;20161;-84
2023/04/02 14:01:55;;;;;;;3.33;0.40;;;18.90;39.40;;;;;;5976004;23;20162;-84
2023/04/02 14:04:24;;;;;;;1.77;0.38;;;18.90;39.30;;;;;;6043720;23;20509;-83
2023/04/02 14:07:27;;;;;;;2.35;0.30;;;18.90;39.50;;;;;;6023396;23;20138;-83
2023/04/02 14:10:27;;;;;;;1.73;0.30;;;18.90;39.70;;;;;;6046227;23;20439;-82
2023/04/02 14:13:29;;;;;;;1.52;0.20;;;19.00;39.10;;;;;;6027490;23;20451;-84